sensor_id;sensor_type;location;lat;lon;timestamp;pressure;altitude;pressure_sealevel;temperature;humidity
216;BME280;64590;48.81286795;9.14184224;2023-02-12T00:01:12;100229.31;;;5.42;74.68
216;BME280;64590;48.81286795;9.14184224;2023-02-12T00:03:39;100227.53;;;5.46;74.33
216;BME280;64590;48.81286795;9.14184224;2023-02-12T00:06:07;100233.75;;;5.52;74.14
216;BME280;64590;48.81286795;9.14184224;2023-02-12T00:08:34;100230.22;;;5.37;74.27
216;BME280;64590;48.81286795;9.14184224;2023-02-12T00:11:06;100236.44;;;5.43;74.48
216;BME280;64590;48.81286795;9.14184224;2023-02-12T00:13:33;100236.75;;;5.42;74.59
216;BME280;64590;48.81286795;9.14184224;2023-02-12T00:16:04;100235.56;;;5.34;74.86
216;BME280;64590;48.81286795;9.14184224;2023-02-12T00:18:31;100243.25;;;5.46;74.81
216;BME280;64590;48.81286795;9.14184224;2023-02-12T00:20:58;100249.44;;;5.29;75.06
216;BME280;64590;48.81286795;9.14184224;2023-02-12T00:23:25;100249.44;;;5.29;75.14
216;BME280;64590;48.81286795;9.14184224;2023-02-12T00:25:52;100242.69;;;5.35;74.95
216;BME280;64590;48.81286795;9.14184224;2023-02-12T00:28:19;100248.66;;;5.51;74.65
216;BME280;64590;48.81286795;9.14184224;2023-02-12T00:30:45;100245.97;;;5.59;74.57
216;BME280;64590;48.81286795;9.14184224;2023-02-12T00:33:13;100244.06;;;5.46;74.73
216;BME280;64590;48.81286795;9.14184224;2023-02-12T00:35:40;100242.72;;;5.57;74.49
216;BME280;64590;48.81286795;9.14184224;2023-02-12T00:38:06;100240.16;;;5.61;74.79
216;BME280;64590;48.81286795;9.14184224;2023-02-12T00:40:33;100249.47;;;5.51;75.10
216;BME280;64590;48.81286795;9.14184224;2023-02-12T00:43:00;100247.88;;;5.36;75.25
216;BME280;64590;48.81286795;9.14184224;2023-02-12T00:45:26;100260.72;;;5.41;75.23
216;BME280;64590;48.81286795;9.14184224;2023-02-12T00:47:53;100260.31;;;5.48;75.24
216;BME280;64590;48.81286795;9.14184224;2023-02-12T00:50:20;100254.03;;;5.56;74.97
216;BME280;64590;48.81286795;9.14184224;2023-02-12T00:52:47;100269.19;;;5.45;75.12
216;BME280;64590;48.81286795;9.14184224;2023-02-12T00:55:15;100266.06;;;5.60;74.88
216;BME280;64590;48.81286795;9.14184224;2023-02-12T00:57:41;100265.56;;;5.58;74.86
216;BME280;64590;48.81286795;9.14184224;2023-02-12T01:00:09;100260.16;;;5.53;74.79
216;BME280;64590;48.81286795;9.14184224;2023-02-12T01:02:36;100259.91;;;5.41;75.49
216;BME280;64590;48.81286795;9.14184224;2023-02-12T01:05:05;100255.34;;;5.36;75.22
216;BME280;64590;48.81286795;9.14184224;2023-02-12T01:07:33;100251.72;;;5.49;75.45
216;BME280;64590;48.81286795;9.14184224;2023-02-12T01:09:59;100253.41;;;5.59;75.21
216;BME280;64590;48.81286795;9.14184224;2023-02-12T01:12:28;100251.53;;;5.46;75.37
216;BME280;64590;48.81286795;9.14184224;2023-02-12T01:14:55;100248.09;;;5.40;75.32
216;BME280;64590;48.81286795;9.14184224;2023-02-12T01:17:21;100254.91;;;5.43;75.17
216;BME280;64590;48.81286795;9.14184224;2023-02-12T01:19:48;100255.63;;;5.48;75.12
216;BME280;64590;48.81286795;9.14184224;2023-02-12T01:22:14;100250.53;;;5.42;75.19
216;BME280;64590;48.81286795;9.14184224;2023-02-12T01:24:43;100264.88;;;5.52;75.11
216;BME280;64590;48.81286795;9.14184224;2023-02-12T01:27:09;100260.72;;;5.41;75.31
216;BME280;64590;48.81286795;9.14184224;2023-02-12T01:29:36;100253.16;;;5.47;75.08
216;BME280;64590;48.81286795;9.14184224;2023-02-12T01:32:04;100254.94;;;5.65;74.25
216;BME280;64590;48.81286795;9.14184224;2023-02-12T01:34:30;100251.91;;;5.53;74.77
216;BME280;64590;48.81286795;9.14184224;2023-02-12T01:36:57;100253.50;;;5.67;74.25
216;BME280;64590;48.81286795;9.14184224;2023-02-12T01:39:23;100254.16;;;5.73;74.07
216;BME280;64590;48.81286795;9.14184224;2023-02-12T01:41:51;100253.03;;;5.52;74.71
216;BME280;64590;48.81286795;9.14184224;2023-02-12T01:44:19;100253.97;;;5.47;74.76
216;BME280;64590;48.81286795;9.14184224;2023-02-12T01:46:48;100248.66;;;5.51;75.12
216;BME280;64590;48.81286795;9.14184224;2023-02-12T01:49:17;100242.09;;;5.60;75.04
216;BME280;64590;48.81286795;9.14184224;2023-02-12T01:51:47;100246.53;;;5.48;75.09
216;BME280;64590;48.81286795;9.14184224;2023-02-12T01:54:19;100236.41;;;5.57;75.05
216;BME280;64590;48.81286795;9.14184224;2023-02-12T01:56:47;100238.19;;;5.61;75.46
216;BME280;64590;48.81286795;9.14184224;2023-02-12T01:59:17;100239.28;;;5.52;75.31
216;BME280;64590;48.81286795;9.14184224;2023-02-12T02:01:45;100238.56;;;5.46;75.72
216;BME280;64590;48.81286795;9.14184224;2023-02-12T02:04:14;100243.41;;;5.41;75.92
216;BME280;64590;48.81286795;9.14184224;2023-02-12T02:06:46;100251.66;;;5.41;75.62
216;BME280;64590;48.81286795;9.14184224;2023-02-12T02:09:15;100255.22;;;5.41;75.58
216;BME280;64590;48.81286795;9.14184224;2023-02-12T02:11:42;100241.03;;;5.48;75.46
216;BME280;64590;48.81286795;9.14184224;2023-02-12T02:14:28;100242.50;;;5.31;75.71
216;BME280;64590;48.81286795;9.14184224;2023-02-12T02:17:30;100238.28;;;5.48;75.62
216;BME280;64590;48.81286795;9.14184224;2023-02-12T02:20:46;100231.88;;;5.61;75.25
216;BME280;64590;48.81286795;9.14184224;2023-02-12T02:23:38;100229.88;;;5.53;75.75
216;BME280;64590;48.81286795;9.14184224;2023-02-12T02:26:21;100224.03;;;5.54;75.60
216;BME280;64590;48.81286795;9.14184224;2023-02-12T02:28:58;100223.22;;;5.54;75.50
216;BME280;64590;48.81286795;9.14184224;2023-02-12T02:31:31;100216.91;;;5.53;75.05
216;BME280;64590;48.81286795;9.14184224;2023-02-12T02:34:07;100223.00;;;5.42;75.27
216;BME280;64590;48.81286795;9.14184224;2023-02-12T02:36:40;100216.09;;;5.30;76.08
216;BME280;64590;48.81286795;9.14184224;2023-02-12T02:39:14;100216.41;;;5.51;75.62
216;BME280;64590;48.81286795;9.14184224;2023-02-12T02:41:45;100220.72;;;5.44;75.63
216;BME280;64590;48.81286795;9.14184224;2023-02-12T02:44:17;100217.84;;;5.26;76.33
216;BME280;64590;48.81286795;9.14184224;2023-02-12T02:46:50;100226.16;;;5.35;76.08
216;BME280;64590;48.81286795;9.14184224;2023-02-12T02:49:23;100217.16;;;5.43;75.77
216;BME280;64590;48.81286795;9.14184224;2023-02-12T02:51:54;100230.63;;;5.45;75.20
216;BME280;64590;48.81286795;9.14184224;2023-02-12T02:54:26;100231.44;;;5.23;76.18
216;BME280;64590;48.81286795;9.14184224;2023-02-12T02:56:58;100224.91;;;5.19;76.30
216;BME280;64590;48.81286795;9.14184224;2023-02-12T02:59:28;100224.72;;;5.37;75.76
216;BME280;64590;48.81286795;9.14184224;2023-02-12T03:02:05;100220.72;;;5.21;76.39
216;BME280;64590;48.81286795;9.14184224;2023-02-12T03:04:34;100222.44;;;5.31;76.20
216;BME280;64590;48.81286795;9.14184224;2023-02-12T03:07:05;100226.16;;;5.35;76.01
216;BME280;64590;48.81286795;9.14184224;2023-02-12T03:09:37;100218.84;;;5.30;76.33
216;BME280;64590;48.81286795;9.14184224;2023-02-12T03:12:09;100222.94;;;5.33;76.23
216;BME280;64590;48.81286795;9.14184224;2023-02-12T03:14:39;100221.78;;;5.34;76.17
216;BME280;64590;48.81286795;9.14184224;2023-02-12T03:17:12;100220.38;;;5.59;75.82
216;BME280;64590;48.81286795;9.14184224;2023-02-12T03:19:42;100228.00;;;5.39;75.94
216;BME280;64590;48.81286795;9.14184224;2023-02-12T03:22:13;100227.00;;;5.58;75.95
216;BME280;64590;48.81286795;9.14184224;2023-02-12T03:24:43;100230.06;;;5.56;75.50
216;BME280;64590;48.81286795;9.14184224;2023-02-12T03:27:16;100235.44;;;5.39;76.59
216;BME280;64590;48.81286795;9.14184224;2023-02-12T03:29:43;100225.19;;;5.31;76.32
216;BME280;64590;48.81286795;9.14184224;2023-02-12T03:32:22;100228.28;;;5.16;76.91
216;BME280;64590;48.81286795;9.14184224;2023-02-12T03:34:52;100234.00;;;5.42;76.60
216;BME280;64590;48.81286795;9.14184224;2023-02-12T03:37:25;100228.50;;;5.42;76.97
216;BME280;64590;48.81286795;9.14184224;2023-02-12T03:39:54;100220.91;;;5.47;76.04
216;BME280;64590;48.81286795;9.14184224;2023-02-12T03:42:28;100221.06;;;5.42;76.15
216;BME280;64590;48.81286795;9.14184224;2023-02-12T03:45:01;100226.66;;;5.37;76.39
216;BME280;64590;48.81286795;9.14184224;2023-02-12T03:47:38;100230.94;;;5.43;75.97
216;BME280;64590;48.81286795;9.14184224;2023-02-12T03:50:11;100225.38;;;5.21;76.90
216;BME280;64590;48.81286795;9.14184224;2023-02-12T03:52:39;100225.59;;;5.47;76.28
216;BME280;64590;48.81286795;9.14184224;2023-02-12T03:55:06;100229.69;;;5.49;75.58
216;BME280;64590;48.81286795;9.14184224;2023-02-12T03:57:43;100229.00;;;5.44;75.88
216;BME280;64590;48.81286795;9.14184224;2023-02-12T04:00:15;100233.31;;;5.36;76.01
216;BME280;64590;48.81286795;9.14184224;2023-02-12T04:02:47;100234.84;;;5.28;76.36
216;BME280;64590;48.81286795;9.14184224;2023-02-12T04:05:18;100241.06;;;5.34;76.79
216;BME280;64590;48.81286795;9.14184224;2023-02-12T04:07:45;100233.38;;;5.22;76.77
216;BME280;64590;48.81286795;9.14184224;2023-02-12T04:10:12;100243.94;;;5.29;76.64
216;BME280;64590;48.81286795;9.14184224;2023-02-12T04:12:46;100236.56;;;5.38;76.79
216;BME280;64590;48.81286795;9.14184224;2023-02-12T04:15:28;100238.84;;;5.58;75.65
216;BME280;64590;48.81286795;9.14184224;2023-02-12T04:18:06;100237.06;;;5.40;76.58
216;BME280;64590;48.81286795;9.14184224;2023-02-12T04:20:41;100233.25;;;5.50;76.01
216;BME280;64590;48.81286795;9.14184224;2023-02-12T04:23:18;100237.81;;;5.32;75.90
216;BME280;64590;48.81286795;9.14184224;2023-02-12T04:25:52;100240.03;;;5.30;76.21
216;BME280;64590;48.81286795;9.14184224;2023-02-12T04:28:27;100244.88;;;5.47;75.56
216;BME280;64590;48.81286795;9.14184224;2023-02-12T04:31:02;100247.34;;;5.48;76.01
216;BME280;64590;48.81286795;9.14184224;2023-02-12T04:33:35;100252.94;;;5.57;75.78
216;BME280;64590;48.81286795;9.14184224;2023-02-12T04:36:08;100254.47;;;5.49;76.02
216;BME280;64590;48.81286795;9.14184224;2023-02-12T04:38:40;100263.59;;;5.36;76.20
216;BME280;64590;48.81286795;9.14184224;2023-02-12T04:41:09;100267.72;;;5.47;75.06
216;BME280;64590;48.81286795;9.14184224;2023-02-12T04:43:36;100262.28;;;5.33;75.54
216;BME280;64590;48.81286795;9.14184224;2023-02-12T04:46:04;100265.03;;;5.33;74.80
216;BME280;64590;48.81286795;9.14184224;2023-02-12T04:48:33;100259.91;;;5.04;75.85
216;BME280;64590;48.81286795;9.14184224;2023-02-12T04:51:00;100266.75;;;5.43;74.18
216;BME280;64590;48.81286795;9.14184224;2023-02-12T04:53:27;100271.25;;;5.39;73.95
216;BME280;64590;48.81286795;9.14184224;2023-02-12T04:55:54;100265.88;;;5.20;74.30
216;BME280;64590;48.81286795;9.14184224;2023-02-12T04:58:20;100267.09;;;5.28;74.54
216;BME280;64590;48.81286795;9.14184224;2023-02-12T05:00:47;100262.38;;;5.28;74.28
216;BME280;64590;48.81286795;9.14184224;2023-02-12T05:03:13;100263.13;;;5.56;73.07
216;BME280;64590;48.81286795;9.14184224;2023-02-12T05:05:41;100268.59;;;5.34;73.51
216;BME280;64590;48.81286795;9.14184224;2023-02-12T05:08:08;100263.44;;;5.19;74.29
216;BME280;64590;48.81286795;9.14184224;2023-02-12T05:10:34;100262.38;;;5.28;74.43
216;BME280;64590;48.81286795;9.14184224;2023-02-12T05:13:01;100260.59;;;5.46;73.54
216;BME280;64590;48.81286795;9.14184224;2023-02-12T05:15:27;100255.91;;;5.47;73.41
216;BME280;64590;48.81286795;9.14184224;2023-02-12T05:17:54;100257.94;;;5.19;74.29
216;BME280;64590;48.81286795;9.14184224;2023-02-12T05:20:20;100253.94;;;5.25;73.98
216;BME280;64590;48.81286795;9.14184224;2023-02-12T05:22:51;100259.78;;;5.09;74.23
216;BME280;64590;48.81286795;9.14184224;2023-02-12T05:25:18;100256.81;;;5.20;74.45
216;BME280;64590;48.81286795;9.14184224;2023-02-12T05:27:45;100256.38;;;5.26;74.18
216;BME280;64590;48.81286795;9.14184224;2023-02-12T05:30:12;100249.34;;;5.20;73.87
216;BME280;64590;48.81286795;9.14184224;2023-02-12T05:32:38;100251.38;;;5.28;73.79
216;BME280;64590;48.81286795;9.14184224;2023-02-12T05:35:06;100254.34;;;5.32;73.94
216;BME280;64590;48.81286795;9.14184224;2023-02-12T05:37:33;100257.91;;;5.32;73.77
216;BME280;64590;48.81286795;9.14184224;2023-02-12T05:40:03;100252.84;;;5.48;73.09
216;BME280;64590;48.81286795;9.14184224;2023-02-12T05:42:29;100261.22;;;5.43;73.04
216;BME280;64590;48.81286795;9.14184224;2023-02-12T05:44:56;100255.88;;;5.24;73.88
216;BME280;64590;48.81286795;9.14184224;2023-02-12T05:47:22;100250.06;;;5.26;73.96
216;BME280;64590;48.81286795;9.14184224;2023-02-12T05:49:49;100261.00;;;5.17;74.30
216;BME280;64590;48.81286795;9.14184224;2023-02-12T05:52:16;100267.47;;;5.35;74.03
216;BME280;64590;48.81286795;9.14184224;2023-02-12T05:54:42;100262.59;;;5.32;74.13
216;BME280;64590;48.81286795;9.14184224;2023-02-12T05:57:10;100262.69;;;5.41;73.82
216;BME280;64590;48.81286795;9.14184224;2023-02-12T05:59:37;100256.78;;;5.33;74.02
216;BME280;64590;48.81286795;9.14184224;2023-02-12T06:02:04;100261.50;;;5.19;74.71
216;BME280;64590;48.81286795;9.14184224;2023-02-12T06:04:31;100267.88;;;5.28;74.16
216;BME280;64590;48.81286795;9.14184224;2023-02-12T06:06:59;100267.56;;;5.30;74.27
216;BME280;64590;48.81286795;9.14184224;2023-02-12T06:09:26;100260.91;;;5.22;74.65
216;BME280;64590;48.81286795;9.14184224;2023-02-12T06:11:52;100257.84;;;5.46;73.89
216;BME280;64590;48.81286795;9.14184224;2023-02-12T06:14:20;100262.69;;;5.41;74.24
216;BME280;64590;48.81286795;9.14184224;2023-02-12T06:16:48;100258.78;;;5.42;74.14
216;BME280;64590;48.81286795;9.14184224;2023-02-12T06:19:16;100255.81;;;5.38;74.46
216;BME280;64590;48.81286795;9.14184224;2023-02-12T06:21:43;100252.09;;;5.20;74.92
216;BME280;64590;48.81286795;9.14184224;2023-02-12T06:24:10;100265.78;;;5.11;75.56
216;BME280;64590;48.81286795;9.14184224;2023-02-12T06:26:37;100258.50;;;5.29;74.86
216;BME280;64590;48.81286795;9.14184224;2023-02-12T06:29:04;100261.56;;;5.28;74.52
216;BME280;64590;48.81286795;9.14184224;2023-02-12T06:31:34;100264.78;;;5.21;74.96
216;BME280;64590;48.81286795;9.14184224;2023-02-12T06:34:02;100270.16;;;5.26;74.74
216;BME280;64590;48.81286795;9.14184224;2023-02-12T06:36:29;100272.16;;;5.34;74.22
216;BME280;64590;48.81286795;9.14184224;2023-02-12T06:38:56;100272.63;;;5.50;73.77
216;BME280;64590;48.81286795;9.14184224;2023-02-12T06:41:23;100281.25;;;5.35;73.97
216;BME280;64590;48.81286795;9.14184224;2023-02-12T06:43:49;100279.06;;;5.46;74.11
216;BME280;64590;48.81286795;9.14184224;2023-02-12T06:46:16;100281.75;;;5.37;73.64
216;BME280;64590;48.81286795;9.14184224;2023-02-12T06:48:44;100282.38;;;5.20;74.71
216;BME280;64590;48.81286795;9.14184224;2023-02-12T06:51:12;100281.22;;;5.13;74.96
216;BME280;64590;48.81286795;9.14184224;2023-02-12T06:53:39;100291.13;;;5.36;74.41
216;BME280;64590;48.81286795;9.14184224;2023-02-12T06:56:07;100289.22;;;5.59;73.05
216;BME280;64590;48.81286795;9.14184224;2023-02-12T06:58:36;100296.84;;;5.39;73.60
216;BME280;64590;48.81286795;9.14184224;2023-02-12T07:01:10;100293.88;;;5.36;73.74
216;BME280;64590;48.81286795;9.14184224;2023-02-12T07:03:38;100298.88;;;5.34;73.74
216;BME280;64590;48.81286795;9.14184224;2023-02-12T07:06:07;100295.66;;;5.54;73.09
216;BME280;64590;48.81286795;9.14184224;2023-02-12T07:08:34;100299.00;;;5.29;73.82
216;BME280;64590;48.81286795;9.14184224;2023-02-12T07:11:00;100303.44;;;5.52;73.24
216;BME280;64590;48.81286795;9.14184224;2023-02-12T07:13:27;100307.06;;;5.39;73.78
216;BME280;64590;48.81286795;9.14184224;2023-02-12T07:15:53;100303.84;;;5.46;73.86
216;BME280;64590;48.81286795;9.14184224;2023-02-12T07:18:20;100302.94;;;5.50;73.53
216;BME280;64590;48.81286795;9.14184224;2023-02-12T07:20:47;100301.97;;;5.32;74.16
216;BME280;64590;48.81286795;9.14184224;2023-02-12T07:23:15;100303.28;;;5.35;73.99
216;BME280;64590;48.81286795;9.14184224;2023-02-12T07:25:41;100301.06;;;5.59;73.49
216;BME280;64590;48.81286795;9.14184224;2023-02-12T07:28:08;100302.59;;;5.65;73.19
216;BME280;64590;48.81286795;9.14184224;2023-02-12T07:30:34;100302.38;;;5.62;73.23
216;BME280;64590;48.81286795;9.14184224;2023-02-12T07:33:01;100302.81;;;5.78;72.07
216;BME280;64590;48.81286795;9.14184224;2023-02-12T07:35:28;100303.06;;;5.67;71.91
216;BME280;64590;48.81286795;9.14184224;2023-02-12T07:37:54;100307.06;;;5.61;72.66
216;BME280;64590;48.81286795;9.14184224;2023-02-12T07:40:22;100299.88;;;5.52;73.21
216;BME280;64590;48.81286795;9.14184224;2023-02-12T07:42:53;100301.91;;;5.46;73.31
216;BME280;64590;48.81286795;9.14184224;2023-02-12T07:45:20;100307.47;;;5.68;73.05
216;BME280;64590;48.81286795;9.14184224;2023-02-12T07:47:46;100301.69;;;5.79;72.00
216;BME280;64590;48.81286795;9.14184224;2023-02-12T07:50:14;100302.13;;;5.72;72.28
216;BME280;64590;48.81286795;9.14184224;2023-02-12T07:52:41;100310.25;;;5.55;73.10
216;BME280;64590;48.81286795;9.14184224;2023-02-12T07:55:07;100301.56;;;5.61;72.70
216;BME280;64590;48.81286795;9.14184224;2023-02-12T07:57:35;100303.19;;;5.62;72.76
216;BME280;64590;48.81286795;9.14184224;2023-02-12T08:00:03;100303.19;;;5.62;73.18
216;BME280;64590;48.81286795;9.14184224;2023-02-12T08:02:37;100296.06;;;5.61;73.34
216;BME280;64590;48.81286795;9.14184224;2023-02-12T08:05:04;100298.50;;;5.85;72.60
216;BME280;64590;48.81286795;9.14184224;2023-02-12T08:07:31;100302.00;;;5.77;72.23
216;BME280;64590;48.81286795;9.14184224;2023-02-12T08:09:58;100299.75;;;5.79;72.54
216;BME280;64590;48.81286795;9.14184224;2023-02-12T08:12:24;100305.69;;;5.73;72.94
216;BME280;64590;48.81286795;9.14184224;2023-02-12T08:14:52;100297.38;;;6.00;71.96
216;BME280;64590;48.81286795;9.14184224;2023-02-12T08:17:19;100300.66;;;6.11;71.95
216;BME280;64590;48.81286795;9.14184224;2023-02-12T08:19:46;100296.16;;;5.92;72.46
216;BME280;64590;48.81286795;9.14184224;2023-02-12T08:22:12;100292.13;;;6.21;71.40
216;BME280;64590;48.81286795;9.14184224;2023-02-12T08:24:39;100292.88;;;6.13;71.61
216;BME280;64590;48.81286795;9.14184224;2023-02-12T08:27:06;100294.13;;;6.29;70.77
216;BME280;64590;48.81286795;9.14184224;2023-02-12T08:29:33;100290.09;;;6.35;70.35
216;BME280;64590;48.81286795;9.14184224;2023-02-12T08:32:02;100290.84;;;5.96;72.05
216;BME280;64590;48.81286795;9.14184224;2023-02-12T08:34:32;100295.53;;;6.18;70.90
216;BME280;64590;48.81286795;9.14184224;2023-02-12T08:36:59;100304.78;;;6.22;70.76
216;BME280;64590;48.81286795;9.14184224;2023-02-12T08:39:28;100296.38;;;6.27;71.12
216;BME280;64590;48.81286795;9.14184224;2023-02-12T08:41:55;100298.13;;;6.23;71.20
216;BME280;64590;48.81286795;9.14184224;2023-02-12T08:44:22;100295.22;;;6.19;71.04
216;BME280;64590;48.81286795;9.14184224;2023-02-12T08:46:50;100307.09;;;6.29;71.48
216;BME280;64590;48.81286795;9.14184224;2023-02-12T08:49:20;100305.91;;;6.21;71.92
216;BME280;64590;48.81286795;9.14184224;2023-02-12T08:51:48;100304.34;;;6.29;71.96
216;BME280;64590;48.81286795;9.14184224;2023-02-12T08:54:17;100302.22;;;6.26;71.74
216;BME280;64590;48.81286795;9.14184224;2023-02-12T08:56:44;100307.47;;;6.13;72.56
216;BME280;64590;48.81286795;9.14184224;2023-02-12T08:59:12;100297.09;;;6.41;71.58
216;BME280;64590;48.81286795;9.14184224;2023-02-12T09:01:39;100308.38;;;6.54;71.27
216;BME280;64590;48.81286795;9.14184224;2023-02-12T09:04:06;100311.63;;;6.56;71.22
216;BME280;64590;48.81286795;9.14184224;2023-02-12T09:06:34;100310.34;;;6.62;70.69
216;BME280;64590;48.81286795;9.14184224;2023-02-12T09:09:02;100317.09;;;6.47;71.31
216;BME280;64590;48.81286795;9.14184224;2023-02-12T09:11:29;100309.22;;;6.32;71.61
216;BME280;64590;48.81286795;9.14184224;2023-02-12T09:13:57;100316.34;;;6.33;71.99
216;BME280;64590;48.81286795;9.14184224;2023-02-12T09:16:25;100317.19;;;6.64;71.22
216;BME280;64590;48.81286795;9.14184224;2023-02-12T09:18:51;100314.34;;;6.47;71.50
216;BME280;64590;48.81286795;9.14184224;2023-02-12T09:21:19;100308.44;;;6.71;70.51
216;BME280;64590;48.81286795;9.14184224;2023-02-12T09:23:47;100308.44;;;6.71;70.49
216;BME280;64590;48.81286795;9.14184224;2023-02-12T09:26:17;100305.78;;;6.57;70.96
216;BME280;64590;48.81286795;9.14184224;2023-02-12T09:28:45;100307.00;;;6.73;70.14
216;BME280;64590;48.81286795;9.14184224;2023-02-12T09:31:14;100307.75;;;6.65;70.61
216;BME280;64590;48.81286795;9.14184224;2023-02-12T09:33:41;100306.53;;;6.80;70.56
216;BME280;64590;48.81286795;9.14184224;2023-02-12T09:36:10;100309.78;;;6.82;70.79
216;BME280;64590;48.81286795;9.14184224;2023-02-12T09:38:37;100310.13;;;6.89;71.03
216;BME280;64590;48.81286795;9.14184224;2023-02-12T09:41:19;100306.31;;;7.16;69.79
216;BME280;64590;48.81286795;9.14184224;2023-02-12T09:43:52;100311.03;;;7.16;70.21
216;BME280;64590;48.81286795;9.14184224;2023-02-12T09:46:27;100302.09;;;7.27;69.42
216;BME280;64590;48.81286795;9.14184224;2023-02-12T09:49:02;100304.38;;;7.25;69.61
216;BME280;64590;48.81286795;9.14184224;2023-02-12T09:51:33;100302.28;;;7.22;70.31
216;BME280;64590;48.81286795;9.14184224;2023-02-12T09:54:02;100311.88;;;7.42;70.18
216;BME280;64590;48.81286795;9.14184224;2023-02-12T09:56:33;100306.69;;;7.58;69.58
216;BME280;64590;48.81286795;9.14184224;2023-02-12T09:59:03;100313.84;;;7.59;70.29
216;BME280;64590;48.81286795;9.14184224;2023-02-12T10:01:30;100313.19;;;7.62;70.05
216;BME280;64590;48.81286795;9.14184224;2023-02-12T10:03:58;100314.50;;;7.64;70.06
216;BME280;64590;48.81286795;9.14184224;2023-02-12T10:06:27;100296.13;;;7.60;70.04
216;BME280;64590;48.81286795;9.14184224;2023-02-12T10:09:17;100309.47;;;7.75;69.76
216;BME280;64590;48.81286795;9.14184224;2023-02-12T10:11:59;100316.78;;;7.88;69.20
216;BME280;64590;48.81286795;9.14184224;2023-02-12T10:14:43;100312.38;;;7.87;69.72
216;BME280;64590;48.81286795;9.14184224;2023-02-12T10:17:22;100307.84;;;7.83;69.71
216;BME280;64590;48.81286795;9.14184224;2023-02-12T10:20:17;100304.75;;;7.93;69.71
216;BME280;64590;48.81286795;9.14184224;2023-02-12T10:22:54;100312.22;;;7.84;70.25
216;BME280;64590;48.81286795;9.14184224;2023-02-12T10:25:29;100309.28;;;7.72;70.58
216;BME280;64590;48.81286795;9.14184224;2023-02-12T10:28:08;100301.81;;;7.81;70.55
216;BME280;64590;48.81286795;9.14184224;2023-02-12T10:30:39;100304.28;;;7.82;70.82
216;BME280;64590;48.81286795;9.14184224;2023-02-12T10:33:15;100302.81;;;7.76;70.83
216;BME280;64590;48.81286795;9.14184224;2023-02-12T10:35:44;100300.66;;;7.90;71.08
216;BME280;64590;48.81286795;9.14184224;2023-02-12T10:38:16;100299.84;;;7.90;70.92
216;BME280;64590;48.81286795;9.14184224;2023-02-12T10:40:45;100302.47;;;7.69;71.29
216;BME280;64590;48.81286795;9.14184224;2023-02-12T10:43:13;100299.03;;;7.72;71.39
216;BME280;64590;48.81286795;9.14184224;2023-02-12T10:45:41;100302.94;;;7.54;72.27
216;BME280;64590;48.81286795;9.14184224;2023-02-12T10:48:12;100300.03;;;7.76;72.32
216;BME280;64590;48.81286795;9.14184224;2023-02-12T10:50:50;100299.03;;;7.72;71.61
216;BME280;64590;48.81286795;9.14184224;2023-02-12T10:53:22;100290.44;;;7.82;72.54
216;BME280;64590;48.81286795;9.14184224;2023-02-12T10:55:49;100291.41;;;7.86;71.81
216;BME280;64590;48.81286795;9.14184224;2023-02-12T10:58:30;100291.38;;;8.04;70.98
216;BME280;64590;48.81286795;9.14184224;2023-02-12T11:00:59;100280.34;;;7.78;72.14
216;BME280;64590;48.81286795;9.14184224;2023-02-12T11:03:29;100287.34;;;8.01;71.60
216;BME280;64590;48.81286795;9.14184224;2023-02-12T11:06:11;100282.59;;;8.10;70.91
216;BME280;64590;48.81286795;9.14184224;2023-02-12T11:08:39;100277.06;;;8.02;71.48
216;BME280;64590;48.81286795;9.14184224;2023-02-12T11:11:09;100277.56;;;8.04;71.12
216;BME280;64590;48.81286795;9.14184224;2023-02-12T11:13:39;100285.72;;;7.91;71.50
216;BME280;64590;48.81286795;9.14184224;2023-02-12T11:16:06;100277.88;;;8.02;71.64
216;BME280;64590;48.81286795;9.14184224;2023-02-12T11:18:33;100274.34;;;7.84;71.19
216;BME280;64590;48.81286795;9.14184224;2023-02-12T11:21:03;100276.44;;;7.87;71.73
216;BME280;64590;48.81286795;9.14184224;2023-02-12T11:23:32;100268.00;;;7.92;71.50
216;BME280;64590;48.81286795;9.14184224;2023-02-12T11:26:01;100269.75;;;7.97;71.28
216;BME280;64590;48.81286795;9.14184224;2023-02-12T11:28:29;100262.44;;;8.10;71.11
216;BME280;64590;48.81286795;9.14184224;2023-02-12T11:30:59;100270.53;;;8.06;71.05
216;BME280;64590;48.81286795;9.14184224;2023-02-12T11:33:30;100268.13;;;8.05;71.18
216;BME280;64590;48.81286795;9.14184224;2023-02-12T11:35:59;100258.84;;;8.09;70.83
216;BME280;64590;48.81286795;9.14184224;2023-02-12T11:38:29;100264.66;;;8.16;71.04
216;BME280;64590;48.81286795;9.14184224;2023-02-12T11:41:05;100268.78;;;8.02;71.05
216;BME280;64590;48.81286795;9.14184224;2023-02-12T11:43:34;100260.00;;;8.00;71.01
216;BME280;64590;48.81286795;9.14184224;2023-02-12T11:46:06;100258.34;;;7.99;71.71
216;BME280;64590;48.81286795;9.14184224;2023-02-12T11:48:36;100262.25;;;8.06;71.09
216;BME280;64590;48.81286795;9.14184224;2023-02-12T11:51:05;100257.53;;;8.07;71.46
216;BME280;64590;48.81286795;9.14184224;2023-02-12T11:53:36;100261.63;;;8.09;70.99
216;BME280;64590;48.81286795;9.14184224;2023-02-12T11:56:06;100255.56;;;8.16;70.78